createdAt,value
2019-02-28T00:02:31.874Z,87.00
2019-02-28T00:04:59.221Z,87.40
2019-02-28T00:07:26.615Z,86.90
2019-02-28T00:10:13.479Z,87.10
2019-02-28T00:12:40.822Z,87.50
2019-02-28T00:15:08.163Z,88.30
2019-02-28T00:17:35.502Z,87.60
2019-02-28T00:20:02.885Z,86.70
2019-02-28T00:22:30.260Z,87.70
2019-02-28T00:25:17.383Z,87.40
2019-02-28T00:27:46.272Z,87.60
2019-02-28T00:30:13.670Z,87.30
2019-02-28T00:32:41.022Z,88.20
2019-02-28T00:35:27.790Z,88.40
2019-02-28T00:37:56.658Z,87.80
2019-02-28T00:40:24.479Z,88.40
2019-02-28T00:42:51.811Z,88.90
2019-02-28T00:45:19.192Z,88.90
2019-02-28T00:47:47.559Z,88.80
2019-02-28T00:50:15.768Z,87.90
2019-02-28T00:52:43.104Z,88.80
2019-02-28T00:55:29.877Z,87.60
2019-02-28T00:57:57.274Z,87.60
2019-02-28T01:00:24.656Z,88.30
2019-02-28T01:02:53.299Z,87.10
2019-02-28T01:05:21.271Z,88.00
2019-02-28T01:08:08.160Z,87.40
2019-02-28T01:10:39.269Z,87.60
2019-02-28T01:13:04.736Z,88.40
2019-02-28T01:15:32.069Z,87.60
2019-02-28T01:18:00.502Z,88.40
2019-02-28T01:20:28.664Z,89.00
2019-02-28T01:22:58.553Z,89.40
2019-02-28T01:25:25.305Z,88.20
2019-02-28T01:27:53.097Z,88.30
2019-02-28T01:30:20.703Z,88.00
2019-02-28T01:33:07.542Z,89.00
2019-02-28T01:35:40.461Z,89.20
2019-02-28T01:38:24.220Z,88.90
2019-02-28T01:43:51.007Z,88.50
2019-02-28T01:46:18.309Z,89.80
2019-02-28T01:49:05.092Z,89.80
2019-02-28T01:51:36.587Z,88.90
2019-02-28T01:54:01.850Z,89.50
2019-02-28T01:56:29.201Z,89.80
2019-02-28T01:58:56.524Z,89.10
2019-02-28T02:01:23.898Z,90.70
2019-02-28T02:03:51.224Z,89.90
2019-02-28T02:06:18.589Z,89.00
2019-02-28T02:08:45.918Z,89.70
2019-02-28T02:11:13.283Z,90.10
2019-02-28T02:14:00.149Z,90.10
2019-02-28T02:16:27.892Z,90.10
2019-02-28T02:18:55.374Z,92.30
2019-02-28T02:21:42.271Z,91.10
2019-02-28T02:24:09.719Z,90.60
2019-02-28T02:26:37.034Z,90.60
2019-02-28T02:29:04.458Z,90.50
2019-02-28T02:31:31.807Z,90.30
2019-02-28T02:33:59.206Z,90.30
2019-02-28T02:36:26.561Z,90.60
2019-02-28T02:38:53.950Z,90.60
2019-02-28T02:41:21.267Z,90.00
2019-02-28T02:44:08.065Z,90.20
2019-02-28T02:46:35.481Z,90.00
2019-02-28T02:49:02.848Z,90.40
2019-02-28T02:51:30.207Z,90.60
2019-02-28T02:53:57.511Z,90.00
2019-02-28T02:56:24.804Z,90.30
2019-02-28T02:58:52.135Z,90.20
2019-02-28T03:01:23.257Z,90.30
2019-02-28T03:03:48.702Z,90.20
2019-02-28T03:06:16.124Z,90.60
2019-02-28T03:08:43.527Z,90.20
2019-02-28T03:11:10.831Z,91.80
2019-02-28T03:13:57.715Z,92.20
2019-02-28T03:19:09.867Z,90.70
2019-02-28T03:21:39.172Z,90.60
2019-02-28T03:24:06.495Z,91.40
2019-02-28T03:26:33.851Z,90.70
2019-02-28T03:29:07.490Z,91.00
2019-02-28T03:31:30.498Z,90.80
2019-02-28T03:34:10.282Z,90.60
2019-02-28T03:36:55.157Z,90.50
2019-02-28T03:39:35.405Z,90.70
2019-02-28T03:42:02.783Z,91.00
2019-02-28T03:44:30.116Z,90.70
2019-02-28T03:46:57.527Z,90.60
2019-02-28T03:49:48.530Z,90.40
2019-02-28T03:52:13.611Z,90.40
2019-02-28T03:54:40.932Z,90.30
2019-02-28T03:57:08.226Z,90.40
2019-02-28T03:59:35.668Z,90.90
2019-02-28T04:02:03.115Z,90.40
2019-02-28T04:04:50.435Z,90.30
2019-02-28T04:07:17.944Z,90.00
2019-02-28T04:09:45.427Z,90.40
2019-02-28T04:12:12.919Z,90.10
2019-02-28T04:14:40.520Z,90.10
2019-02-28T04:17:07.860Z,90.10
2019-02-28T04:19:35.160Z,90.50
2019-02-28T04:22:02.509Z,90.40
2019-02-28T04:24:29.817Z,90.50
2019-02-28T04:27:16.602Z,90.00
2019-02-28T04:29:43.930Z,90.80
2019-02-28T04:32:30.712Z,90.50
2019-02-28T04:34:58.148Z,90.50
2019-02-28T04:37:26.559Z,91.30
2019-02-28T04:39:54.158Z,90.60
2019-02-28T04:42:21.491Z,91.10
2019-02-28T04:45:08.635Z,91.20
2019-02-28T04:47:37.196Z,90.60
2019-02-28T04:50:24.731Z,90.50
2019-02-28T04:55:37.165Z,91.40
2019-02-28T04:58:05.357Z,91.10
2019-02-28T05:00:32.734Z,91.10
2019-02-28T05:03:00.179Z,90.50
2019-02-28T05:05:27.498Z,90.60
2019-02-28T05:07:54.804Z,90.60
2019-02-28T05:10:41.598Z,90.80
2019-02-28T05:13:11.442Z,91.00
2019-02-28T05:15:40.927Z,90.60
2019-02-28T05:18:07.571Z,91.50
2019-02-28T05:20:35.003Z,91.00
2019-02-28T05:23:02.947Z,90.90
2019-02-28T05:25:30.556Z,91.20
2019-02-28T05:27:57.850Z,91.00
2019-02-28T05:30:25.211Z,91.10
2019-02-28T05:32:52.578Z,91.20
2019-02-28T05:35:25.157Z,91.50
2019-02-28T05:37:49.190Z,92.50
2019-02-28T05:40:16.495Z,91.40
2019-02-28T05:42:43.813Z,91.70
2019-02-28T05:45:29.796Z,91.10
2019-02-28T05:50:55.120Z,91.40
2019-02-28T05:53:22.569Z,91.20
2019-02-28T05:55:49.958Z,91.40
2019-02-28T05:58:18.418Z,90.90
2019-02-28T06:00:45.994Z,91.60
2019-02-28T06:03:13.299Z,91.10
2019-02-28T06:05:43.503Z,91.50
2019-02-28T06:08:29.336Z,91.40
2019-02-28T06:11:00.695Z,91.20
2019-02-28T06:13:26.002Z,91.30
2019-02-28T06:15:53.378Z,91.90
2019-02-28T06:18:20.807Z,91.20
2019-02-28T06:21:07.576Z,91.20
2019-02-28T06:23:35.007Z,91.20
2019-02-28T06:26:02.443Z,91.20
2019-02-28T06:28:31.017Z,91.10
2019-02-28T06:31:00.210Z,91.10
2019-02-28T06:33:30.526Z,90.70
2019-02-28T06:35:57.249Z,90.80
2019-02-28T06:38:24.650Z,91.00
2019-02-28T06:40:51.991Z,91.00
2019-02-28T06:43:19.603Z,91.50
2019-02-28T06:45:47.142Z,91.40
2019-02-28T06:48:14.484Z,91.70
2019-02-28T06:50:44.702Z,92.00
2019-02-28T06:53:11.145Z,92.00
2019-02-28T06:55:47.110Z,91.90
2019-02-28T06:58:34.123Z,92.00
2019-02-28T07:01:01.503Z,91.90
2019-02-28T07:03:28.824Z,91.70
2019-02-28T07:05:57.627Z,92.20
2019-02-28T07:08:28.801Z,91.80
2019-02-28T07:10:54.758Z,92.20
2019-02-28T07:13:22.104Z,92.20
2019-02-28T07:15:49.511Z,92.80
2019-02-28T07:18:18.874Z,93.90
2019-02-28T07:20:47.206Z,93.60
2019-02-28T07:23:14.820Z,92.80
2019-02-28T07:25:44.308Z,94.50
2019-02-28T07:28:11.622Z,93.80
2019-02-28T07:30:39.152Z,93.30
2019-02-28T07:33:10.489Z,92.80
2019-02-28T07:35:55.177Z,92.70
2019-02-28T07:41:07.854Z,92.50
2019-02-28T07:43:35.159Z,92.30
2019-02-28T07:46:04.518Z,92.10
2019-02-28T07:48:31.889Z,92.10
2019-02-28T07:50:59.350Z,92.30
2019-02-28T07:53:26.690Z,92.60
2019-02-28T07:55:54.066Z,92.40
2019-02-28T07:58:21.519Z,92.50
2019-02-28T08:00:52.613Z,92.40
2019-02-28T08:03:18.184Z,92.20
2019-02-28T08:05:45.550Z,92.70
2019-02-28T08:08:12.901Z,92.60
2019-02-28T08:10:40.260Z,93.20
2019-02-28T08:13:07.612Z,93.70
2019-02-28T08:15:34.930Z,93.10
2019-02-28T08:18:02.691Z,93.10
2019-02-28T08:20:49.468Z,94.10
2019-02-28T08:23:30.101Z,92.60
2019-02-28T08:26:00.144Z,93.20
2019-02-28T08:28:29.598Z,95.00
2019-02-28T08:30:57.183Z,93.80
2019-02-28T08:33:24.482Z,94.20
2019-02-28T08:35:51.819Z,93.50
2019-02-28T08:38:19.249Z,93.70
2019-02-28T08:40:50.494Z,94.80
2019-02-28T08:43:35.354Z,93.30
2019-02-28T08:46:02.933Z,92.90
2019-02-28T08:48:32.398Z,93.90
2019-02-28T08:51:19.042Z,92.90
2019-02-28T08:56:32.257Z,93.20
2019-02-28T08:58:59.803Z,93.80
2019-02-28T09:01:27.194Z,93.40
2019-02-28T09:03:54.609Z,93.50
2019-02-28T09:06:22.046Z,94.10
2019-02-28T09:08:49.374Z,93.90
2019-02-28T09:11:20.607Z,95.50
2019-02-28T09:13:46.011Z,94.10
2019-02-28T09:16:13.335Z,95.20
2019-02-28T09:18:40.844Z,94.80
2019-02-28T09:21:08.270Z,96.80
2019-02-28T09:23:37.547Z,94.90
2019-02-28T09:26:28.301Z,96.10
2019-02-28T09:28:56.728Z,96.40
2019-02-28T09:31:33.075Z,94.40
2019-02-28T09:34:00.511Z,95.00
2019-02-28T09:36:47.800Z,94.60
2019-02-28T09:39:16.380Z,94.50
2019-02-28T09:41:44.451Z,95.50
2019-02-28T09:44:11.780Z,96.00
2019-02-28T09:46:39.094Z,96.30
2019-02-28T09:49:12.023Z,96.60
2019-02-28T09:51:35.827Z,95.50
2019-02-28T09:54:03.222Z,96.20
2019-02-28T09:56:50.020Z,96.50
2019-02-28T09:59:17.355Z,96.30
2019-02-28T10:01:44.700Z,96.60
2019-02-28T10:04:12.277Z,95.20
2019-02-28T10:06:39.658Z,96.60
2019-02-28T10:09:08.780Z,94.40
2019-02-28T10:11:36.504Z,96.20
2019-02-28T10:14:25.681Z,94.50
2019-02-28T10:16:53.331Z,94.40
2019-02-28T10:19:45.445Z,94.30
2019-02-28T10:22:12.890Z,93.80
2019-02-28T10:24:40.507Z,94.30
2019-02-28T10:27:07.935Z,95.10
2019-02-28T10:29:35.279Z,94.60
2019-02-28T10:32:02.696Z,95.70
2019-02-28T10:34:30.111Z,94.30
2019-02-28T10:36:57.472Z,94.80
2019-02-28T10:39:24.815Z,94.70
2019-02-28T10:41:52.133Z,94.20
2019-02-28T10:44:19.488Z,94.10
2019-02-28T10:46:46.783Z,93.70
2019-02-28T10:49:14.202Z,93.90
2019-02-28T10:51:44.673Z,94.00
2019-02-28T10:54:11.311Z,93.90
2019-02-28T10:56:40.091Z,93.70
2019-02-28T10:59:07.442Z,93.50
2019-02-28T11:01:34.832Z,93.70
2019-02-28T11:04:04.529Z,93.60
2019-02-28T11:06:37.276Z,93.70
2019-02-28T11:09:05.043Z,93.70
2019-02-28T11:11:32.344Z,93.90
2019-02-28T11:13:59.671Z,93.90
2019-02-28T11:16:26.984Z,94.20
2019-02-28T11:18:54.300Z,94.50
2019-02-28T11:21:41.088Z,94.60
2019-02-28T11:24:08.412Z,94.30
2019-02-28T11:26:35.722Z,94.40
2019-02-28T11:29:22.699Z,94.60
2019-02-28T11:31:50.558Z,94.60
2019-02-28T11:34:19.295Z,95.30
2019-02-28T11:36:46.722Z,95.60
2019-02-28T11:39:18.566Z,94.70
2019-02-28T11:41:45.966Z,95.00
2019-02-28T11:44:13.282Z,94.90
2019-02-28T11:46:40.730Z,95.20
2019-02-28T11:49:08.141Z,95.10
2019-02-28T11:51:35.454Z,95.30
2019-02-28T11:54:02.815Z,95.90
2019-02-28T11:56:49.720Z,95.40
2019-02-28T11:59:17.075Z,95.80
2019-02-28T12:01:47.499Z,95.40
2019-02-28T12:04:13.638Z,95.50
2019-02-28T12:06:40.982Z,95.20
2019-02-28T12:09:08.392Z,95.90
2019-02-28T12:11:36.478Z,96.00
2019-02-28T12:14:06.274Z,95.80
2019-02-28T12:16:35.230Z,95.70
2019-02-28T12:19:23.351Z,95.40
2019-02-28T12:22:12.099Z,95.20
2019-02-28T12:24:39.595Z,95.10
2019-02-28T12:27:06.962Z,94.70
2019-02-28T12:29:34.455Z,94.80
2019-02-28T12:32:21.327Z,95.20
2019-02-28T12:34:48.749Z,94.90
2019-02-28T12:37:16.055Z,95.00
2019-02-28T12:39:43.375Z,95.10
2019-02-28T12:42:10.699Z,94.80
2019-02-28T12:44:38.298Z,95.00
2019-02-28T12:47:06.456Z,95.70
2019-02-28T12:49:34.847Z,95.90
2019-02-28T12:52:02.199Z,95.70
2019-02-28T12:54:30.291Z,95.80
2019-02-28T12:56:59.226Z,95.50
2019-02-28T12:59:26.553Z,96.10
2019-02-28T13:01:53.896Z,95.90
2019-02-28T13:04:21.195Z,95.30
2019-02-28T13:06:48.569Z,96.20
2019-02-28T13:09:16.999Z,95.80
2019-02-28T13:12:08.060Z,96.20
2019-02-28T13:14:36.779Z,95.60
2019-02-28T13:17:03.243Z,95.70
2019-02-28T13:19:30.629Z,95.70
2019-02-28T13:21:58.007Z,95.50
2019-02-28T13:24:26.006Z,95.40
2019-02-28T13:26:53.439Z,95.40
2019-02-28T13:29:22.254Z,95.50
2019-02-28T13:31:49.837Z,95.60
2019-02-28T13:34:17.156Z,95.40
2019-02-28T13:36:44.592Z,96.00
2019-02-28T13:39:11.953Z,95.30
2019-02-28T13:41:39.746Z,95.30
2019-02-28T13:44:07.193Z,95.60
2019-02-28T13:46:34.618Z,95.70
2019-02-28T13:49:08.490Z,95.80
2019-02-28T13:51:42.136Z,95.90
2019-02-28T13:54:07.321Z,96.30
2019-02-28T13:56:34.917Z,96.60
2019-02-28T13:59:02.306Z,96.70
2019-02-28T14:01:29.680Z,96.90
2019-02-28T14:03:57.120Z,96.80
2019-02-28T14:06:43.921Z,96.70
2019-02-28T14:09:11.371Z,96.40
2019-02-28T14:11:41.794Z,97.00
2019-02-28T14:14:08.028Z,97.10
2019-02-28T14:16:35.436Z,97.40
2019-02-28T14:19:02.887Z,97.40
2019-02-28T14:21:49.679Z,97.30
2019-02-28T14:24:17.052Z,96.70
2019-02-28T14:26:46.532Z,97.40
2019-02-28T14:29:13.634Z,97.00
2019-02-28T14:31:41.058Z,96.80
2019-02-28T14:34:08.423Z,97.30
2019-02-28T14:36:35.776Z,96.70
2019-02-28T14:39:04.743Z,97.20
2019-02-28T14:41:33.687Z,97.00
2019-02-28T14:44:01.019Z,96.90
2019-02-28T14:46:28.324Z,96.80
2019-02-28T14:48:55.634Z,97.00
2019-02-28T14:51:25.425Z,96.80
2019-02-28T14:53:52.302Z,96.50
2019-02-28T14:56:19.611Z,97.10
2019-02-28T14:58:46.932Z,97.00
2019-02-28T15:01:16.777Z,97.00
2019-02-28T15:03:43.492Z,97.40
2019-02-28T15:06:10.827Z,97.20
2019-02-28T15:08:57.751Z,97.50
2019-02-28T15:14:10.501Z,97.40
2019-02-28T15:16:57.372Z,97.70
2019-02-28T15:19:25.404Z,97.60
2019-02-28T15:21:53.444Z,97.70
2019-02-28T15:24:20.830Z,97.50
2019-02-28T15:27:07.665Z,97.80
2019-02-28T15:29:55.497Z,97.80
2019-02-28T15:32:24.649Z,97.80
2019-02-28T15:34:52.006Z,98.00
2019-02-28T15:37:19.354Z,97.90
2019-02-28T15:39:49.801Z,98.00
2019-02-28T15:42:35.375Z,97.90
2019-02-28T15:45:04.131Z,97.50
2019-02-28T15:47:32.192Z,98.20
2019-02-28T15:49:59.538Z,98.20
2019-02-28T15:52:26.937Z,98.00
2019-02-28T15:54:56.899Z,98.20
2019-02-28T15:57:23.533Z,98.00
2019-02-28T15:59:50.823Z,97.60
2019-02-28T16:02:18.246Z,97.90
2019-02-28T16:04:45.661Z,97.90
2019-02-28T16:07:13.068Z,97.90
2019-02-28T16:09:40.483Z,98.20
2019-02-28T16:12:27.318Z,98.40
2019-02-28T16:15:12.591Z,98.00
2019-02-28T16:17:53.122Z,97.90
2019-02-28T16:20:21.432Z,97.70
2019-02-28T16:22:52.127Z,97.90
2019-02-28T16:25:23.655Z,98.30
2019-02-28T16:27:50.943Z,98.30
2019-02-28T16:30:18.297Z,98.00
2019-02-28T16:32:49.007Z,97.80
2019-02-28T16:35:15.498Z,98.30
2019-02-28T16:37:42.982Z,97.90
2019-02-28T16:40:12.004Z,98.00
2019-02-28T16:42:39.432Z,98.10
2019-02-28T16:45:11.029Z,98.20
2019-02-28T16:47:38.358Z,98.40
2019-02-28T16:50:06.211Z,98.30
2019-02-28T16:52:33.603Z,98.60
2019-02-28T16:55:01.044Z,98.50
2019-02-28T16:57:28.355Z,97.80
2019-02-28T16:59:55.773Z,98.00
2019-02-28T17:02:42.584Z,98.00
2019-02-28T17:05:10.076Z,98.20
2019-02-28T17:07:37.385Z,98.30
2019-02-28T17:10:30.192Z,98.90
2019-02-28T17:13:17.012Z,98.50
2019-02-28T17:16:02.762Z,98.60
2019-02-28T17:18:31.553Z,98.60
2019-02-28T17:20:59.713Z,98.60
2019-02-28T17:23:46.886Z,98.80
2019-02-28T17:26:14.642Z,98.50
2019-02-28T17:29:11.702Z,98.80
2019-02-28T17:31:48.302Z,97.70
2019-02-28T17:34:17.694Z,98.50
2019-02-28T17:36:47.601Z,98.40
2019-02-28T17:39:15.919Z,98.80
2019-02-28T17:41:43.470Z,98.70
2019-02-28T17:45:01.480Z,98.70
2019-02-28T17:48:31.530Z,98.30
2019-02-28T17:51:08.485Z,98.60
2019-02-28T17:54:17.185Z,98.70
2019-02-28T17:57:26.145Z,98.30
2019-02-28T18:00:37.058Z,98.70
2019-02-28T18:06:40.348Z,98.80
2019-02-28T18:09:17.324Z,99.10
2019-02-28T18:12:40.670Z,99.20
2019-02-28T18:15:45.717Z,98.90
2019-02-28T18:18:30.296Z,98.80
2019-02-28T18:21:47.326Z,99.40
2019-02-28T18:24:28.087Z,98.60
2019-02-28T18:27:33.207Z,99.50
2019-02-28T18:30:37.973Z,99.40
2019-02-28T18:33:06.720Z,99.30
2019-02-28T18:35:55.723Z,99.20
2019-02-28T18:41:08.379Z,99.10
2019-02-28T18:43:55.191Z,99.60
2019-02-28T18:46:22.720Z,99.40
2019-02-28T18:48:51.300Z,99.40
2019-02-28T18:51:19.274Z,99.20
2019-02-28T18:53:47.178Z,99.10
2019-02-28T18:56:14.596Z,99.70
2019-02-28T18:58:41.987Z,99.90
2019-02-28T19:01:09.335Z,99.60
2019-02-28T19:03:36.687Z,99.60
2019-02-28T19:06:23.792Z,99.00
2019-02-28T19:08:51.230Z,98.70
2019-02-28T19:11:18.653Z,99.60
2019-02-28T19:13:46.004Z,99.40
2019-02-28T19:16:32.961Z,99.40
2019-02-28T19:19:00.266Z,99.00
2019-02-28T19:21:27.619Z,99.20
2019-02-28T19:23:54.962Z,99.20
2019-02-28T19:26:22.369Z,99.40
2019-02-28T19:28:49.777Z,99.10
2019-02-28T19:31:17.143Z,98.90
2019-02-28T19:33:44.519Z,99.30
2019-02-28T19:36:11.855Z,99.10
2019-02-28T19:38:39.200Z,99.30
2019-02-28T19:41:06.647Z,99.30
2019-02-28T19:43:33.954Z,99.10
2019-02-28T19:46:01.356Z,98.50
2019-02-28T19:48:28.840Z,99.40
2019-02-28T19:50:56.347Z,99.10
2019-02-28T19:53:23.727Z,98.80
2019-02-28T19:55:51.118Z,99.40
2019-02-28T19:58:18.569Z,99.30
2019-02-28T20:00:46.068Z,99.60
2019-02-28T20:03:13.476Z,99.20
2019-02-28T20:05:40.810Z,99.10
2019-02-28T20:08:08.136Z,99.00
2019-02-28T20:10:35.450Z,99.60
2019-02-28T20:13:03.532Z,99.20
2019-02-28T20:15:33.171Z,98.90
2019-02-28T20:18:02.224Z,98.70
2019-02-28T20:20:29.554Z,99.10
2019-02-28T20:22:57.245Z,98.80
2019-02-28T20:25:24.665Z,98.50
2019-02-28T20:27:52.087Z,98.60
2019-02-28T20:30:20.759Z,98.80
2019-02-28T20:32:48.087Z,98.70
2019-02-28T20:35:15.382Z,99.00
2019-02-28T20:38:02.153Z,99.10
2019-02-28T20:40:29.496Z,99.40
2019-02-28T20:42:56.826Z,99.30
2019-02-28T20:45:24.239Z,99.60
2019-02-28T20:47:51.618Z,99.20
2019-02-28T20:50:22.464Z,99.10
2019-02-28T20:52:50.131Z,99.10
2019-02-28T20:55:17.480Z,99.30
2019-02-28T20:58:04.291Z,98.90
2019-02-28T21:00:31.710Z,98.40
2019-02-28T21:02:59.111Z,99.50
2019-02-28T21:05:26.520Z,99.50
2019-02-28T21:07:53.967Z,99.60
2019-02-28T21:10:21.344Z,99.20
2019-02-28T21:12:48.744Z,98.80
2019-02-28T21:15:16.222Z,98.90
2019-02-28T21:17:43.636Z,99.80
2019-02-28T21:20:30.707Z,98.90
2019-02-28T21:22:58.152Z,99.40
2019-02-28T21:25:25.642Z,99.50
2019-02-28T21:27:53.237Z,99.90
2019-02-28T21:30:20.958Z,99.30
2019-02-28T21:32:48.296Z,99.70
2019-02-28T21:35:16.034Z,99.90
2019-02-28T21:37:43.559Z,99.80
2019-02-28T21:40:11.538Z,99.90
2019-02-28T21:42:54.897Z,99.80
2019-02-28T21:45:22.645Z,99.90
2019-02-28T21:47:49.961Z,99.90
2019-02-28T21:50:17.289Z,99.90
2019-02-28T21:52:44.815Z,99.90
2019-02-28T21:55:12.479Z,99.90
2019-02-28T21:57:39.939Z,99.90
2019-02-28T22:00:10.975Z,99.80
2019-02-28T22:02:38.395Z,99.90
2019-02-28T22:05:13.400Z,99.90
2019-02-28T22:07:40.791Z,99.70
2019-02-28T22:10:08.983Z,99.50
2019-02-28T22:12:36.458Z,99.90
2019-02-28T22:15:04.605Z,99.40
2019-02-28T22:17:31.958Z,99.70
2019-02-28T22:19:59.346Z,99.90
2019-02-28T22:25:18.040Z,99.90
2019-02-28T22:27:45.394Z,99.90
2019-02-28T22:30:49.291Z,99.90
2019-02-28T22:33:28.071Z,99.90
2019-02-28T22:35:56.783Z,99.90
2019-02-28T22:38:24.207Z,99.90
2019-02-28T22:40:51.544Z,99.90
2019-02-28T22:43:18.911Z,99.90
2019-02-28T22:45:46.271Z,99.90
2019-02-28T22:48:33.339Z,99.90
2019-02-28T22:51:00.681Z,99.90
2019-02-28T22:53:28.087Z,99.90
2019-02-28T22:56:14.870Z,99.90
2019-02-28T22:58:42.327Z,99.90
2019-02-28T23:01:11.768Z,99.90
2019-02-28T23:03:39.276Z,99.90
2019-02-28T23:06:06.643Z,99.90
2019-02-28T23:08:34.089Z,99.90
2019-02-28T23:11:01.452Z,99.90
2019-02-28T23:13:28.858Z,99.90
2019-02-28T23:15:56.287Z,99.90
2019-02-28T23:18:23.616Z,99.90
2019-02-28T23:20:50.935Z,99.90
2019-02-28T23:23:18.226Z,99.90
2019-02-28T23:25:45.749Z,99.90
2019-02-28T23:28:15.357Z,99.90
2019-02-28T23:31:25.435Z,99.90
2019-02-28T23:34:01.155Z,99.90
2019-02-28T23:36:22.108Z,99.90
2019-02-28T23:38:49.517Z,99.90
2019-02-28T23:41:16.912Z,99.90
2019-02-28T23:44:03.788Z,99.90
2019-02-28T23:46:31.118Z,99.90
2019-02-28T23:48:58.479Z,99.70
2019-02-28T23:51:25.882Z,99.60
2019-02-28T23:53:53.212Z,99.90
2019-02-28T23:56:20.526Z,99.90
2019-02-28T23:58:47.960Z,99.90
